Domov               UVHVVR             MKGP            O straneh              
ZDRAVSTVENO VARSTVO RASTLIN
  MREŽA AGROMET. POSTAJ
 ► PROGNOSTIČNA OBVESTILA
AGROMETEOROLOŠKI PODATKI -
ARSO
OBVLADOVANJE TVEGANJ ZARADI
NEUGODNIH VREMENSKIH RAZMER
  ► NARAVNE NESREČE
  ► SUŠA/MOČA
  ► NAMAKANJE
  ► ŽLED (gozdarstvo)
KARTOGRAFSKI PRIKAZI
SPLETNE POVEZAVE
PROJEKTI IN PUBLIKACIJE

AGROMETEOROLOŠKA MREŽA: VREMENSKE POSTAJE IN FENOLOŠKA OPAZOVANJA

Pregled podatkov za lokacijo Zimica, meteorološka postaja 27472

Pregled senzorjev na lokaciji

ID Ime Zadnja
vrednost
Datum
zadnje
spremembe
Tip
senzorja
4317 Omočenost lista (U) 0 U 25.3.2019 01:30 A730WET
1715 Padavine (mm) 0 mm 25.3.2019 01:30 Generic 0.2 mm
1714 Relativna vlaga 2 m (% RH) 52,36 % RH 25.3.2019 01:30 Generic 0 - 100 %
1713 Temperatura 2 m (°C) 11,89 °C 25.3.2019 01:30 Generic -40 - +60 °C

Pregled podatkov zadnjih 24 ur

Zap.
št.
Datum in čas Zimica
Omočenost
lista
Padavine Relativna
vlaga
2
m
Temperatura
2
m
1 25.3.2019 00:30 0 0 52,4 11,9
2 25.3.2019 00:00 0 0 51,7 11,9
3 24.3.2019 23:30 0 0 49,4 12,5
4 24.3.2019 23:00 0 0 48,7 12,6
5 24.3.2019 22:30 0 0 49,4 12,4
6 24.3.2019 22:00 0 0 47,7 12,8
7 24.3.2019 21:30 0 0 40,5 14,7
8 24.3.2019 21:00 0 0 39,2 15
9 24.3.2019 20:30 0 0 37,9 15,3
10 24.3.2019 20:00 0 0 36,9 15,7
11 24.3.2019 19:30 0 0 36,2 16,2
12 24.3.2019 19:00 0 0 36,2 16,6
13 24.3.2019 18:30 0 0 34,7 17,5
14 24.3.2019 18:00 0 0 31,3 18,9
15 24.3.2019 17:30 0 0 28,9 19,9
16 24.3.2019 17:00 0 0 26,6 20,3
17 24.3.2019 16:30 0 0 26,2 20,7
18 24.3.2019 16:00 0 0 25,6 20,6
19 24.3.2019 15:30 0 0 25 20,6
20 24.3.2019 15:00 0 0 26,1 20,7
21 24.3.2019 14:30 0 0 26,3 20,5
22 24.3.2019 14:00 0 0 27,1 20,4
23 24.3.2019 13:30 0 0 30,5 20,3
24 24.3.2019 13:00 0 0 33,3 19,9
25 24.3.2019 12:30 0 0 33,8 19,2
26 24.3.2019 12:00 0 0 34,9 18,7
27 24.3.2019 11:30 0 0 38,5 17,7
28 24.3.2019 11:00 0 0 41,8 16,9
29 24.3.2019 10:30 0 0 44,2 16,7
30 24.3.2019 10:00 0 0 45,8 15,7
31 24.3.2019 09:30 0 0 51,9 14
32 24.3.2019 09:00 0 0 55,9 12,5
33 24.3.2019 08:30 0 0 59 11,1
34 24.3.2019 08:00 0 0 64,4 9,3
35 24.3.2019 07:30 0 0 64,8 8,7
36 24.3.2019 07:00 2 0 70,6 7
37 24.3.2019 06:30 10 0 73,9 6,2
38 24.3.2019 06:00 10 0 73,5 6,3
39 24.3.2019 05:30 3 0 71,3 6,8
40 24.3.2019 05:00 4 0 72,6 6,4
41 24.3.2019 04:30 1 0 68,9 7,2
42 24.3.2019 04:00 0 0 65,1 8,1
43 24.3.2019 03:30 0 0 59,7 9,1
44 24.3.2019 03:00 0 0 60 8,8
45 24.3.2019 02:30 0 0 57,5 9,5
46 24.3.2019 02:00 0 0 60,8 8,6
47 24.3.2019 01:30 1 0 62,3 8,4
48 24.3.2019 01:00 1 0 63 8,3
© 2011 Ministrstvo za kmetijstvo, gozdarstvo in prehrano. Vse pravice pridržane.